Time;durP1;ratioP1;P1;durP2;ratioP2;P2;SDS_P1;SDS_P2;PMS_P1;PMS_P2;Temp;Humidity;BMP_temperature;BMP_pressure;BME280_temperature;BME280_humidity;BME280_pressure;Samples;Min_cycle;Max_cycle;Signal;HPM_P1;HPM_P2
2022/12/30 00:00:19;;;;;;;17.23;4.10;;;7.20;99.90;;;;;;5094329;28;20125;-78
2022/12/30 00:02:45;;;;;;;16.05;4.15;;;6.20;99.90;;;;;;5093784;28;20058;-78
2022/12/30 00:05:11;;;;;;;26.27;4.13;;;6.30;99.90;;;;;;5093876;28;20499;-79
2022/12/30 00:07:36;;;;;;;18.13;4.00;;;6.20;99.90;;;;;;5094459;28;20089;-79
2022/12/30 00:10:03;;;;;;;15.52;3.97;;;6.10;99.90;;;;;;5093885;28;20051;-79
2022/12/30 00:35:06;;;;;;;15.50;4.28;;;5.90;99.90;;;;;;5093636;28;20044;-78
2022/12/30 00:37:31;;;;;;;11.00;3.83;;;5.90;99.90;;;;;;5093665;28;20052;-78
2022/12/30 00:39:57;;;;;;;19.85;5.05;;;5.90;99.90;;;;;;5093953;28;20089;-78
2022/12/30 00:45:07;;;;;;;12.18;3.90;;;5.80;99.90;;;;;;5094046;28;20131;-79
2022/12/30 00:47:33;;;;;;;16.20;4.47;;;5.80;99.90;;;;;;5093569;28;20119;-78
2022/12/30 00:58:12;;;;;;;12.55;3.40;;;5.70;99.90;;;;;;5093516;28;20141;-78
2022/12/30 01:00:37;;;;;;;17.23;4.18;;;5.90;99.90;;;;;;5093277;28;20082;-78
2022/12/30 01:03:03;;;;;;;22.77;4.35;;;5.70;99.90;;;;;;5093398;28;20059;-79
2022/12/30 01:05:28;;;;;;;15.93;4.22;;;5.70;99.90;;;;;;5092264;28;20051;-78
2022/12/30 01:07:54;;;;;;;19.00;4.10;;;6.10;99.90;;;;;;5093234;28;20047;-78
2022/12/30 01:10:20;;;;;;;15.45;4.75;;;5.60;99.90;;;;;;5109423;28;20083;-78
2022/12/30 01:12:45;;;;;;;21.98;3.75;;;5.60;99.90;;;;;;5093334;28;20067;-78
2022/12/30 01:15:11;;;;;;;13.15;5.03;;;5.60;99.90;;;;;;5093300;28;20055;-79
2022/12/30 01:17:36;;;;;;;18.92;5.15;;;5.60;99.90;;;;;;5093197;28;20044;-78
2022/12/30 01:20:04;;;;;;;17.48;3.75;;;6.00;99.90;;;;;;5093297;28;20082;-78
2022/12/30 01:22:30;;;;;;;20.65;3.95;;;5.50;99.90;;;;;;5093168;28;20097;-76
2022/12/30 01:24:55;;;;;;;17.92;3.60;;;5.50;99.90;;;;;;5093143;28;20040;-76
2022/12/30 01:27:21;;;;;;;14.55;3.95;;;5.50;99.90;;;;;;5093197;28;20468;-78
2022/12/30 01:29:47;;;;;;;12.00;3.58;;;5.50;99.90;;;;;;5092915;28;20050;-78
2022/12/30 01:32:15;;;;;;;13.70;3.63;;;5.40;99.90;;;;;;5093298;28;20040;-78
2022/12/30 01:34:41;;;;;;;12.13;3.53;;;5.40;99.90;;;;;;5093127;28;20051;-78
2022/12/30 01:37:07;;;;;;;14.57;3.47;;;5.40;99.90;;;;;;5093090;28;20419;-78
2022/12/30 01:39:33;;;;;;;16.48;3.40;;;5.40;99.90;;;;;;5095093;28;20040;-78
2022/12/30 01:41:58;;;;;;;9.40;3.08;;;5.50;99.90;;;;;;5096590;28;20051;-78
2022/12/30 01:44:49;;;;;;;16.73;3.80;;;5.40;99.90;;;;;;5096155;28;20040;-78
2022/12/30 01:47:35;;;;;;;15.25;3.60;;;5.40;99.90;;;;;;5096314;28;20040;-78
2022/12/30 01:50:27;;;;;;;15.90;3.58;;;5.30;99.90;;;;;;5097066;28;20048;-78
2022/12/30 01:53:07;;;;;;;17.50;4.30;;;5.40;99.90;;;;;;5096738;28;20093;-78
2022/12/30 01:55:37;;;;;;;18.30;3.92;;;5.30;99.90;;;;;;5096240;28;20092;-78
2022/12/30 01:58:07;;;;;;;15.93;4.18;;;5.60;99.90;;;;;;5096350;28;20059;-78
2022/12/30 02:00:32;;;;;;;14.80;3.97;;;5.30;99.90;;;;;;5096310;28;20365;-78
2022/12/30 02:02:58;;;;;;;13.88;3.85;;;5.30;99.90;;;;;;5096302;28;20105;-78
2022/12/30 02:05:28;;;;;;;12.75;3.80;;;5.30;99.90;;;;;;5096053;28;20044;-78
2022/12/30 02:08:11;;;;;;;19.17;4.50;;;5.30;99.90;;;;;;5096223;28;20134;-78
2022/12/30 02:10:38;;;;;;;12.50;4.30;;;5.30;99.90;;;;;;5096232;28;20083;-78
2022/12/30 02:13:04;;;;;;;15.70;4.07;;;5.30;99.90;;;;;;5096488;28;20052;-78
2022/12/30 02:15:53;;;;;;;20.80;4.15;;;5.20;99.90;;;;;;5096054;28;20472;-78
2022/12/30 02:18:52;;;;;;;19.27;4.85;;;5.20;99.90;;;;;;5096145;28;20147;-78
2022/12/30 02:21:46;;;;;;;11.10;3.70;;;5.20;99.90;;;;;;5095961;28;20051;-78
2022/12/30 02:24:35;;;;;;;17.90;4.32;;;5.20;99.90;;;;;;5096227;28;20415;-78
2022/12/30 02:27:23;;;;;;;17.48;3.88;;;5.20;99.90;;;;;;5095926;28;20098;-78
2022/12/30 02:30:06;;;;;;;14.73;4.68;;;5.20;99.90;;;;;;5095597;28;20476;-78
2022/12/30 02:33:12;;;;;;;13.90;3.50;;;5.10;99.90;;;;;;5096021;28;20066;-78
2022/12/30 02:36:01;;;;;;;33.28;5.35;;;5.10;99.90;;;;;;5095391;28;20094;-78
2022/12/30 02:38:33;;;;;;;20.77;5.07;;;5.10;99.90;;;;;;5095648;28;20040;-78
2022/12/30 02:46:47;;;;;;;20.13;4.75;;;5.00;99.90;;;;;;5095501;28;20044;-78
2022/12/30 02:49:15;;;;;;;17.92;4.90;;;4.90;99.90;;;;;;5095025;28;20044;-78
2022/12/30 02:54:28;;;;;;;26.67;5.30;;;4.90;99.90;;;;;;5095236;28;20041;-78
2022/12/30 02:56:53;;;;;;;23.17;5.05;;;4.80;99.90;;;;;;5095226;28;20046;-78
2022/12/30 03:05:15;;;;;;;16.85;4.30;;;4.80;99.90;;;;;;5094674;28;20040;-78
2022/12/30 03:08:00;;;;;;;17.38;4.55;;;4.70;99.90;;;;;;5095132;28;20104;-78
2022/12/30 03:13:38;;;;;;;17.05;4.93;;;4.70;99.90;;;;;;5094825;28;20468;-78
2022/12/30 03:16:28;;;;;;;18.77;5.10;;;4.70;99.90;;;;;;5095245;28;20090;-78
2022/12/30 03:18:57;;;;;;;17.85;4.10;;;4.70;99.90;;;;;;5094570;28;20486;-78
2022/12/30 03:21:25;;;;;;;17.65;3.85;;;4.70;99.90;;;;;;5094815;28;20058;-78
2022/12/30 03:29:29;;;;;;;12.82;3.10;;;5.70;99.90;;;;;;5094773;28;20055;-78
2022/12/30 03:31:55;;;;;;;15.98;3.75;;;4.70;99.90;;;;;;5094522;28;20047;-79
2022/12/30 03:34:23;;;;;;;14.00;3.70;;;4.90;99.90;;;;;;5094338;28;20468;-79
2022/12/30 03:36:53;;;;;;;10.98;2.85;;;4.70;99.90;;;;;;5094903;28;20292;-78
2022/12/30 03:39:34;;;;;;;17.67;3.67;;;4.70;99.90;;;;;;5094559;28;20044;-78
2022/12/30 03:42:02;;;;;;;15.38;3.72;;;4.70;99.90;;;;;;5094684;28;20396;-78
2022/12/30 03:44:28;;;;;;;12.10;3.40;;;4.70;99.90;;;;;;5094249;28;20146;-78
2022/12/30 03:46:53;;;;;;;8.90;3.20;;;4.70;99.90;;;;;;5094439;28;20156;-79
2022/12/30 03:49:19;;;;;;;12.48;3.70;;;5.30;99.90;;;;;;5094327;28;20044;-78
2022/12/30 03:51:45;;;;;;;12.85;3.45;;;5.20;99.90;;;;;;5094329;28;20087;-78
2022/12/30 03:54:11;;;;;;;10.70;3.40;;;4.70;99.90;;;;;;5094215;28;20040;-78
2022/12/30 03:56:36;;;;;;;13.88;3.40;;;4.70;99.90;;;;;;5094206;28;20293;-78
2022/12/30 03:59:02;;;;;;;14.98;3.53;;;4.70;99.90;;;;;;5094207;28;20083;-78
2022/12/30 04:01:28;;;;;;;14.43;3.55;;;4.70;99.90;;;;;;5093246;28;20396;-78
2022/12/30 04:03:53;;;;;;;17.80;3.25;;;5.00;99.90;;;;;;5094009;28;20048;-79
2022/12/30 04:06:19;;;;;;;13.05;3.05;;;4.70;99.90;;;;;;5093596;28;20036;-78
2022/12/30 04:08:44;;;;;;;15.90;3.47;;;4.70;99.90;;;;;;5094078;28;20448;-78
2022/12/30 04:11:10;;;;;;;16.80;3.45;;;4.60;99.90;;;;;;5093806;28;20056;-78
2022/12/30 04:13:35;;;;;;;14.50;3.47;;;4.60;99.90;;;;;;5092882;28;20083;-78
2022/12/30 04:16:01;;;;;;;11.35;3.15;;;4.60;99.90;;;;;;5093886;28;20043;-78
2022/12/30 04:18:27;;;;;;;16.73;3.58;;;4.60;99.90;;;;;;5093833;28;20051;-78
2022/12/30 04:20:52;;;;;;;17.88;3.45;;;4.60;99.90;;;;;;5093942;28;20040;-78
2022/12/30 04:23:18;;;;;;;7.85;3.20;;;4.60;99.90;;;;;;5094088;28;20133;-78
2022/12/30 04:25:44;;;;;;;12.85;3.33;;;4.60;99.90;;;;;;5092787;28;20048;-78
2022/12/30 04:28:10;;;;;;;11.03;3.10;;;4.60;99.90;;;;;;5093823;28;20115;-79
2022/12/30 04:30:35;;;;;;;15.23;3.10;;;4.60;99.90;;;;;;5093728;28;20825;-78
2022/12/30 04:33:01;;;;;;;14.38;3.20;;;4.60;99.90;;;;;;5093750;28;20079;-78
2022/12/30 04:35:27;;;;;;;10.27;2.90;;;4.60;99.90;;;;;;5093685;28;20055;-78
2022/12/30 04:37:53;;;;;;;10.77;2.90;;;4.50;99.90;;;;;;5094026;28;20466;-78
2022/12/30 04:40:19;;;;;;;12.85;3.08;;;4.50;99.90;;;;;;5093677;28;20050;-78
2022/12/30 04:42:45;;;;;;;17.85;3.70;;;4.50;99.90;;;;;;5092767;28;20044;-79
2022/12/30 04:45:11;;;;;;;15.27;3.60;;;4.50;99.90;;;;;;5093238;28;20549;-78
2022/12/30 04:47:37;;;;;;;11.70;3.08;;;4.50;99.90;;;;;;5093528;28;20044;-78
2022/12/30 04:50:03;;;;;;;9.98;3.38;;;4.50;99.90;;;;;;5093475;28;20071;-78
2022/12/30 04:52:28;;;;;;;8.00;2.83;;;4.50;99.90;;;;;;5093544;28;20051;-78
2022/12/30 04:54:54;;;;;;;10.88;3.33;;;4.50;99.90;;;;;;5093537;28;20032;-78
2022/12/30 04:57:19;;;;;;;7.93;2.80;;;4.50;99.90;;;;;;5093513;28;20048;-78
2022/12/30 04:59:45;;;;;;;11.57;2.83;;;4.50;99.90;;;;;;5093276;28;20046;-78
2022/12/30 05:02:11;;;;;;;12.43;4.15;;;4.50;99.90;;;;;;5093557;28;20052;-78
2022/12/30 05:04:37;;;;;;;13.20;3.60;;;4.50;99.90;;;;;;5093346;28;20040;-78
2022/12/30 05:07:04;;;;;;;12.95;3.38;;;4.40;99.90;;;;;;5093354;28;20052;-78
2022/12/30 05:09:29;;;;;;;17.13;3.50;;;4.40;99.90;;;;;;5093484;28;20464;-78
2022/12/30 05:11:55;;;;;;;14.35;3.08;;;4.50;99.90;;;;;;5093160;28;20051;-78
2022/12/30 05:14:20;;;;;;;10.27;2.97;;;4.50;99.90;;;;;;5096567;28;20054;-78
2022/12/30 05:16:46;;;;;;;9.75;3.05;;;4.50;99.90;;;;;;5097451;28;20529;-78
2022/12/30 05:19:12;;;;;;;20.27;3.78;;;5.30;99.90;;;;;;5097139;28;20091;-78
2022/12/30 05:21:38;;;;;;;10.93;3.28;;;4.50;99.90;;;;;;5097023;28;20084;-78
2022/12/30 05:26:47;;;;;;;10.93;3.10;;;4.50;99.90;;;;;;5096898;28;20048;-78
2022/12/30 05:29:13;;;;;;;13.27;2.72;;;4.50;99.90;;;;;;5096585;28;20052;-78
2022/12/30 05:31:39;;;;;;;15.13;3.33;;;4.50;99.90;;;;;;5097342;28;20468;-78
2022/12/30 05:34:04;;;;;;;11.40;3.35;;;4.40;99.90;;;;;;5096931;28;20079;-78
2022/12/30 05:36:30;;;;;;;11.23;3.03;;;4.40;99.90;;;;;;5096526;28;20036;-78
2022/12/30 05:38:56;;;;;;;21.35;4.55;;;4.40;99.90;;;;;;5096835;28;20051;-78
2022/12/30 05:41:21;;;;;;;14.35;3.60;;;4.30;99.90;;;;;;5096679;28;20032;-78
2022/12/30 05:43:48;;;;;;;11.05;3.55;;;4.40;99.90;;;;;;5096610;28;20040;-79
2022/12/30 05:46:14;;;;;;;17.95;3.15;;;4.30;99.90;;;;;;5096756;28;20377;-78
2022/12/30 05:48:39;;;;;;;11.50;3.20;;;4.30;99.90;;;;;;5096613;28;20051;-77
2022/12/30 05:51:05;;;;;;;13.70;3.28;;;4.30;99.90;;;;;;5096653;28;20040;-78
2022/12/30 05:53:31;;;;;;;14.60;3.75;;;4.20;99.90;;;;;;5096645;28;20130;-78
2022/12/30 05:55:58;;;;;;;12.63;2.97;;;4.20;99.90;;;;;;5096535;28;20127;-78
2022/12/30 05:58:24;;;;;;;;;;;4.20;99.90;;;;;;5096859;28;20051;-75
2022/12/30 06:00:50;;;;;;;15.40;3.92;;;4.20;99.90;;;;;;5094732;28;19919;-77
2022/12/30 06:03:16;;;;;;;11.65;2.95;;;4.20;99.90;;;;;;5096318;28;20044;-77
2022/12/30 06:05:42;;;;;;;9.80;3.22;;;4.20;99.90;;;;;;5096331;28;20044;-76
2022/12/30 06:08:09;;;;;;;15.20;3.27;;;4.20;99.90;;;;;;5096295;28;20040;-77
2022/12/30 06:10:35;;;;;;;9.95;2.65;;;4.10;99.90;;;;;;5096215;28;20054;-77
2022/12/30 06:13:00;;;;;;;11.27;3.25;;;4.10;99.90;;;;;;5096158;28;20051;-77
2022/12/30 06:15:26;;;;;;;17.50;3.97;;;4.10;99.90;;;;;;5096067;28;20040;-76
2022/12/30 06:17:52;;;;;;;12.50;3.05;;;4.10;99.90;;;;;;5096378;28;20472;-77
2022/12/30 06:20:17;;;;;;;7.90;2.88;;;4.10;99.90;;;;;;5096029;28;20040;-78
2022/12/30 06:22:43;;;;;;;13.50;2.95;;;4.10;99.90;;;;;;5095959;28;20127;-77
2022/12/30 06:25:08;;;;;;;11.02;3.00;;;4.10;99.90;;;;;;5094824;28;20071;-77
2022/12/30 06:27:34;;;;;;;10.35;3.22;;;4.10;99.90;;;;;;5095837;28;20377;-76
2022/12/30 06:30:00;;;;;;;10.63;2.60;;;4.10;99.90;;;;;;5094965;28;20044;-78
2022/12/30 06:32:25;;;;;;;18.45;4.72;;;4.10;99.90;;;;;;5095712;28;20157;-78
2022/12/30 06:34:51;;;;;;;14.15;3.72;;;4.10;99.90;;;;;;5096047;28;20036;-77
2022/12/30 06:37:16;;;;;;;13.27;3.20;;;4.10;99.90;;;;;;5095761;28;20472;-77
2022/12/30 06:39:42;;;;;;;13.30;3.00;;;4.10;99.90;;;;;;5095524;28;20044;-78
2022/12/30 06:42:07;;;;;;;9.25;3.10;;;4.10;99.90;;;;;;5095524;28;20040;-74
2022/12/30 06:44:33;;;;;;;19.83;3.75;;;4.10;99.90;;;;;;5095481;28;20439;-77
2022/12/30 06:46:58;;;;;;;13.30;3.53;;;4.10;99.90;;;;;;5095672;28;20039;-77
2022/12/30 06:49:24;;;;;;;13.35;3.28;;;4.10;99.90;;;;;;5095785;28;20047;-77
2022/12/30 06:51:50;;;;;;;19.23;4.65;;;4.70;99.90;;;;;;5095409;28;20432;-77
2022/12/30 06:54:15;;;;;;;11.80;3.03;;;4.10;99.90;;;;;;5095403;28;20032;-78
2022/12/30 06:56:41;;;;;;;10.60;3.15;;;4.10;99.90;;;;;;5095284;28;20093;-76
2022/12/30 06:59:06;;;;;;;9.32;3.38;;;4.10;99.90;;;;;;5095003;28;20127;-79
2022/12/30 07:01:32;;;;;;;9.35;3.10;;;4.10;99.90;;;;;;5095255;28;20484;-77
2022/12/30 07:03:58;;;;;;;16.83;3.30;;;4.10;99.90;;;;;;5093886;28;20044;-75
2022/12/30 07:06:23;;;;;;;15.38;3.85;;;4.10;99.90;;;;;;5095358;28;20039;-76
2022/12/30 07:08:49;;;;;;;11.45;3.30;;;4.20;99.90;;;;;;5095259;28;20472;-76
2022/12/30 07:11:14;;;;;;;18.67;3.72;;;4.20;99.90;;;;;;5095190;28;20126;-76
2022/12/30 07:13:40;;;;;;;10.95;3.65;;;4.20;99.90;;;;;;5094968;28;20122;-76
2022/12/30 07:16:06;;;;;;;6.90;3.17;;;4.60;99.90;;;;;;5094891;28;20043;-77
2022/12/30 07:18:31;;;;;;;17.90;2.97;;;4.20;99.90;;;;;;5094892;28;20484;-76
2022/12/30 07:20:57;;;;;;;12.57;2.80;;;4.20;99.90;;;;;;5076793;28;20412;-78
2022/12/30 07:23:23;;;;;;;18.48;4.20;;;4.20;99.90;;;;;;5094708;28;20079;-76
2022/12/30 07:25:48;;;;;;;14.40;2.80;;;4.30;99.90;;;;;;5094713;28;20036;-77
2022/12/30 07:28:14;;;;;;;12.48;3.10;;;4.30;99.90;;;;;;5094449;28;20046;-74
2022/12/30 07:30:40;;;;;;;14.27;3.30;;;4.30;99.90;;;;;;5094624;28;20538;-70
2022/12/30 07:33:06;;;;;;;12.35;3.03;;;4.30;99.90;;;;;;5093036;28;20040;-76
2022/12/30 07:35:32;;;;;;;8.25;3.10;;;5.10;99.90;;;;;;5094092;28;20101;-77
2022/12/30 07:37:57;;;;;;;11.70;3.30;;;4.20;99.90;;;;;;5094129;28;20472;-77
2022/12/30 07:40:23;;;;;;;14.35;3.25;;;4.30;99.90;;;;;;5093038;28;20086;-77
2022/12/30 07:42:49;;;;;;;14.00;3.75;;;4.30;99.90;;;;;;5093932;28;20040;-78
2022/12/30 07:45:14;;;;;;;16.08;3.83;;;4.30;99.90;;;;;;5094008;28;20147;-78
2022/12/30 07:47:43;;;;;;;12.38;3.88;;;4.30;99.90;;;;;;5094286;28;20032;-78
2022/12/30 07:50:10;;;;;;;12.02;3.83;;;4.30;99.90;;;;;;5093972;28;20138;-77
2022/12/30 07:52:35;;;;;;;;;;;4.30;99.90;;;;;;5094520;28;20048;-78
2022/12/30 07:55:01;;;;;;;14.25;3.17;;;4.30;99.90;;;;;;5094269;28;20008;-77
2022/12/30 07:57:28;;;;;;;17.40;6.25;;;4.40;99.90;;;;;;5093497;28;20043;-78
2022/12/30 07:59:53;;;;;;;9.48;3.63;;;4.30;99.90;;;;;;5093970;28;20178;-80
2022/12/30 08:02:19;;;;;;;12.32;3.63;;;4.40;99.90;;;;;;5093756;28;20105;-78
2022/12/30 08:04:45;;;;;;;17.65;3.35;;;4.40;99.90;;;;;;5092795;28;20538;-79
2022/12/30 08:07:11;;;;;;;13.15;3.78;;;4.40;99.90;;;;;;5094270;28;20083;-77
2022/12/30 08:09:37;;;;;;;16.25;3.47;;;4.40;99.90;;;;;;5093815;28;20091;-77
2022/12/30 08:12:03;;;;;;;11.68;3.10;;;4.40;99.90;;;;;;5093664;28;20462;-79
2022/12/30 08:14:28;;;;;;;11.38;3.80;;;4.50;99.90;;;;;;5092706;28;20053;-77
2022/12/30 08:16:54;;;;;;;11.68;3.08;;;4.50;99.90;;;;;;5094034;28;20120;-77
2022/12/30 08:19:20;;;;;;;17.00;3.08;;;4.60;99.90;;;;;;5093653;28;20491;-77
2022/12/30 08:21:45;;;;;;;9.15;3.03;;;4.90;99.90;;;;;;5093431;28;20056;-77
2022/12/30 08:24:11;;;;;;;17.55;3.90;;;4.50;99.90;;;;;;5093590;28;20046;-78
2022/12/30 08:26:37;;;;;;;14.70;3.08;;;5.10;99.90;;;;;;5093531;28;20119;-79
2022/12/30 08:29:02;;;;;;;9.80;3.30;;;4.60;99.90;;;;;;5093098;28;20048;-77
2022/12/30 08:31:28;;;;;;;13.57;3.28;;;4.60;99.90;;;;;;5093612;28;20040;-78
2022/12/30 08:33:55;;;;;;;15.52;3.33;;;4.70;99.90;;;;;;5093370;28;20610;-77
2022/12/30 08:36:24;;;;;;;10.88;3.08;;;4.70;99.90;;;;;;5093387;28;20091;-77
2022/12/30 08:38:53;;;;;;;8.15;2.45;;;4.70;99.90;;;;;;5093290;28;20515;-77
2022/12/30 08:41:33;;;;;;;8.10;2.88;;;4.80;99.90;;;;;;5093257;28;20401;-76
2022/12/30 08:43:59;;;;;;;10.70;3.75;;;4.80;99.90;;;;;;5093459;28;20047;-77
2022/12/30 08:46:27;;;;;;;12.38;3.47;;;4.80;99.90;;;;;;5093386;28;20498;-78
2022/12/30 08:48:53;;;;;;;13.95;2.70;;;4.90;99.90;;;;;;5096123;28;20101;-75
2022/12/30 08:51:19;;;;;;;13.60;3.42;;;4.90;99.90;;;;;;5097332;28;20044;-76
2022/12/30 08:53:45;;;;;;;11.88;3.03;;;5.90;99.90;;;;;;5097289;28;20055;-76
2022/12/30 08:56:27;;;;;;;10.00;2.92;;;5.00;99.90;;;;;;5096876;28;20047;-77
2022/12/30 08:58:53;;;;;;;12.00;2.70;;;5.00;99.90;;;;;;5097375;28;20043;-76
2022/12/30 09:01:23;;;;;;;9.98;3.35;;;5.10;99.90;;;;;;5097220;28;20139;-75
2022/12/30 09:03:49;;;;;;;11.13;2.90;;;5.20;99.90;;;;;;5097067;28;20044;-77
2022/12/30 09:06:17;;;;;;;12.88;3.00;;;5.20;99.90;;;;;;5097102;28;20048;-75
2022/12/30 09:08:44;;;;;;;9.45;2.72;;;5.20;99.90;;;;;;5096938;28;20040;-78
2022/12/30 09:11:16;;;;;;;8.10;2.50;;;5.30;99.90;;;;;;5096909;28;20491;-77
2022/12/30 09:13:42;;;;;;;6.32;2.60;;;5.30;99.90;;;;;;5096210;28;20412;-80
2022/12/30 09:16:11;;;;;;;10.32;2.85;;;5.40;99.90;;;;;;5096815;28;20497;-77
2022/12/30 09:18:37;;;;;;;9.82;2.78;;;5.40;99.90;;;;;;5096122;28;20495;-77
2022/12/30 09:21:03;;;;;;;12.50;2.92;;;5.40;99.90;;;;;;5095026;28;20040;-77
2022/12/30 09:23:29;;;;;;;9.45;3.13;;;5.50;99.90;;;;;;5095174;28;20036;-77
2022/12/30 09:25:55;;;;;;;10.88;3.22;;;5.50;99.90;;;;;;5096180;28;20047;-77
2022/12/30 09:28:20;;;;;;;9.65;2.70;;;5.50;99.90;;;;;;5096072;28;20059;-77
2022/12/30 09:30:46;;;;;;;5.68;2.50;;;5.50;99.90;;;;;;5095869;28;20538;-77
2022/12/30 09:33:12;;;;;;;11.20;2.80;;;5.60;99.90;;;;;;5096231;28;20052;-77
2022/12/30 09:35:38;;;;;;;13.10;2.95;;;5.70;99.90;;;;;;5096744;28;20495;-77
2022/12/30 09:38:04;;;;;;;6.88;3.08;;;5.70;99.90;;;;;;5096153;28;20048;-77
2022/12/30 09:40:54;;;;;;;6.57;2.53;;;5.80;99.90;;;;;;5096671;28;20039;-76
2022/12/30 09:43:45;;;;;;;11.18;3.28;;;5.80;99.90;;;;;;5096382;28;20059;-77
2022/12/30 09:46:31;;;;;;;7.20;2.60;;;5.90;99.90;;;;;;5096602;28;20445;-77
2022/12/30 09:49:02;;;;;;;12.52;2.58;;;5.90;99.90;;;;;;5096497;28;20110;-78
2022/12/30 09:51:35;;;;;;;10.77;2.70;;;6.00;99.90;;;;;;5096227;28;20102;-79
2022/12/30 09:54:05;;;;;;;9.07;2.60;;;6.00;99.90;;;;;;5096136;28;20490;-77
2022/12/30 09:56:34;;;;;;;9.80;3.47;;;6.00;99.90;;;;;;5096297;28;20048;-78
2022/12/30 09:59:29;;;;;;;6.93;2.50;;;6.10;99.90;;;;;;5095295;28;20424;-78
2022/12/30 10:02:21;;;;;;;9.90;3.25;;;6.10;99.90;;;;;;5094673;28;20102;-78
2022/12/30 10:04:47;;;;;;;11.13;2.95;;;6.10;99.90;;;;;;5095964;28;20039;-78
2022/12/30 10:07:26;;;;;;;9.05;3.10;;;6.20;99.90;;;;;;5111776;28;20400;-77
2022/12/30 10:10:00;;;;;;;10.40;3.00;;;6.20;99.90;;;;;;5096159;28;20048;-77
2022/12/30 10:12:48;;;;;;;10.75;2.95;;;7.00;99.90;;;;;;5095723;28;20499;-77
2022/12/30 10:15:35;;;;;;;10.43;3.53;;;6.20;99.90;;;;;;5096326;28;20044;-77
2022/12/30 10:18:22;;;;;;;12.82;3.17;;;6.30;99.90;;;;;;5095807;28;20048;-77
2022/12/30 10:21:03;;;;;;;15.60;3.22;;;6.30;99.90;;;;;;5095841;28;20055;-77
2022/12/30 10:23:54;;;;;;;11.57;3.03;;;6.30;99.90;;;;;;5095707;28;20047;-77
2022/12/30 10:26:32;;;;;;;6.43;2.45;;;6.40;99.90;;;;;;5095797;28;20490;-77
2022/12/30 10:29:08;;;;;;;7.75;2.88;;;6.50;99.90;;;;;;5095631;28;20441;-77
2022/12/30 10:31:36;;;;;;;7.10;3.08;;;6.60;99.90;;;;;;5078467;28;20054;-78
2022/12/30 10:34:16;;;;;;;10.48;2.70;;;6.60;99.90;;;;;;5095356;28;20389;-77
2022/12/30 10:37:02;;;;;;;8.50;2.70;;;6.70;99.90;;;;;;5095291;28;20055;-77
2022/12/30 10:39:33;;;;;;;4.88;2.50;;;6.80;99.90;;;;;;5095719;28;20079;-77
2022/12/30 10:42:05;;;;;;;8.20;2.72;;;6.80;99.90;;;;;;5095646;28;20048;-77
2022/12/30 10:44:49;;;;;;;7.70;2.25;;;6.90;99.90;;;;;;5094917;28;20048;-77
2022/12/30 10:47:41;;;;;;;7.05;2.50;;;6.90;99.90;;;;;;5095462;28;20048;-77
2022/12/30 10:50:22;;;;;;;5.40;2.78;;;7.00;99.90;;;;;;5095072;28;20105;-77
2022/12/30 10:52:48;;;;;;;8.00;2.88;;;7.10;99.90;;;;;;5095334;28;20047;-76
2022/12/30 10:55:28;;;;;;;7.72;2.53;;;7.10;99.90;;;;;;5095021;28;20039;-79
2022/12/30 10:58:02;;;;;;;11.77;4.45;;;7.10;99.90;;;;;;5095271;28;20040;-85
2022/12/30 11:00:32;;;;;;;8.15;2.72;;;7.70;99.90;;;;;;5094875;28;20051;-78
2022/12/30 11:03:16;;;;;;;9.75;2.63;;;7.80;99.90;;;;;;5095305;28;20060;-78
2022/12/30 11:05:42;;;;;;;7.28;2.40;;;7.50;99.90;;;;;;5094783;28;20400;-77
2022/12/30 11:08:23;;;;;;;6.53;2.15;;;7.30;99.90;;;;;;5095031;28;20058;-77
2022/12/30 11:11:04;;;;;;;7.57;2.42;;;7.20;99.90;;;;;;5094962;28;20044;-77
2022/12/30 11:16:22;;;;;;;7.75;2.60;;;7.50;99.90;;;;;;5093422;28;20496;-80
2022/12/30 11:18:48;;;;;;;6.95;2.70;;;7.30;99.90;;;;;;5094854;28;20032;-78
2022/12/30 11:21:23;;;;;;;5.85;2.42;;;7.30;99.90;;;;;;5094480;28;20044;-77
2022/12/30 11:23:54;;;;;;;4.82;2.40;;;7.30;99.90;;;;;;5094459;28;20036;-79
2022/12/30 11:26:22;;;;;;;5.10;2.30;;;7.40;99.90;;;;;;5094326;28;20076;-77
2022/12/30 11:29:06;;;;;;;3.45;2.03;;;7.40;99.90;;;;;;5094470;28;20048;-77
2022/12/30 11:31:42;;;;;;;6.78;2.92;;;7.50;99.90;;;;;;5094551;28;20395;-77
2022/12/30 11:34:20;;;;;;;6.82;3.15;;;8.20;99.90;;;;;;5094433;28;20101;-78
2022/12/30 11:36:46;;;;;;;7.60;2.75;;;7.50;99.90;;;;;;5094190;28;20044;-83
2022/12/30 11:39:32;;;;;;;6.72;2.55;;;7.60;99.90;;;;;;5094139;28;20056;-81
2022/12/30 11:42:01;;;;;;;8.35;2.35;;;7.60;99.90;;;;;;5094563;28;20052;-80
2022/12/30 11:44:30;;;;;;;9.32;2.83;;;7.60;99.90;;;;;;5094250;28;20083;-78
2022/12/30 11:47:03;;;;;;;6.05;2.55;;;7.90;99.90;;;;;;5094213;28;20054;-79
2022/12/30 11:49:49;;;;;;;6.97;2.67;;;7.70;99.90;;;;;;5093965;28;20080;-79
2022/12/30 11:52:25;;;;;;;9.18;2.35;;;7.70;99.90;;;;;;5093000;28;20047;-79
2022/12/30 11:54:55;;;;;;;5.82;2.40;;;7.80;99.90;;;;;;5094221;28;20044;-78
2022/12/30 11:57:36;;;;;;;9.88;2.42;;;7.80;99.90;;;;;;5093515;28;20438;-78
2022/12/30 12:00:24;;;;;;;5.13;2.30;;;7.80;99.90;;;;;;5092113;28;20052;-78
2022/12/30 12:03:01;;;;;;;10.98;3.95;;;7.80;99.90;;;;;;5092761;28;20056;-78
2022/12/30 12:05:30;;;;;;;9.45;2.50;;;8.40;99.90;;;;;;5093501;28;20119;-79
2022/12/30 12:08:02;;;;;;;6.18;2.40;;;7.90;99.90;;;;;;5092559;28;20130;-78
2022/12/30 12:10:34;;;;;;;3.65;1.77;;;7.90;99.90;;;;;;5093542;28;20048;-79
2022/12/30 12:13:04;;;;;;;7.53;2.50;;;8.40;99.90;;;;;;5093701;28;20130;-78
2022/12/30 12:15:43;;;;;;;5.20;2.00;;;7.90;99.90;;;;;;5093706;28;20083;-78
2022/12/30 12:18:13;;;;;;;4.60;2.35;;;7.90;99.90;;;;;;5093690;28;20093;-78
2022/12/30 12:20:57;;;;;;;4.97;1.77;;;7.90;99.90;;;;;;5093801;28;20058;-79
2022/12/30 12:23:32;;;;;;;4.72;2.58;;;8.00;99.90;;;;;;5092875;28;20046;-78
2022/12/30 12:26:25;;;;;;;6.57;2.03;;;8.00;99.90;;;;;;5093717;28;20048;-78
2022/12/30 12:28:53;;;;;;;5.45;2.25;;;8.00;99.90;;;;;;5093707;28;20059;-78
2022/12/30 12:31:18;;;;;;;2.83;1.90;;;8.10;99.90;;;;;;5093490;28;20054;-78
2022/12/30 12:33:52;;;;;;;3.63;1.60;;;8.10;99.90;;;;;;5093411;28;20048;-79
2022/12/30 12:36:53;;;;;;;6.45;2.22;;;8.10;99.90;;;;;;5093592;28;20090;-79
2022/12/30 12:39:57;;;;;;;6.40;2.05;;;8.10;99.90;;;;;;5093578;28;20044;-79
2022/12/30 12:42:46;;;;;;;4.82;2.22;;;8.10;99.90;;;;;;5090500;28;20396;-79
2022/12/30 12:45:28;;;;;;;5.65;2.30;;;8.10;99.90;;;;;;5093651;28;20093;-80
2022/12/30 12:48:25;;;;;;;3.33;2.00;;;8.10;99.90;;;;;;5093349;28;20040;-79
2022/12/30 12:51:01;;;;;;;3.40;1.80;;;8.10;99.90;;;;;;5075746;28;20043;-80
2022/12/30 12:54:04;;;;;;;10.77;2.17;;;8.10;99.90;;;;;;5093287;28;20078;-79
2022/12/30 12:56:35;;;;;;;3.88;1.70;;;8.20;99.90;;;;;;5092070;28;20044;-80
2022/12/30 12:59:07;;;;;;;5.32;1.60;;;8.20;99.90;;;;;;5092445;28;20454;-80
2022/12/30 13:02:04;;;;;;;3.70;1.83;;;8.20;99.90;;;;;;5092763;28;20062;-80
2022/12/30 13:05:02;;;;;;;5.05;1.80;;;8.20;99.90;;;;;;5092936;28;20442;-80
2022/12/30 13:07:31;;;;;;;3.33;1.60;;;8.20;99.90;;;;;;5092644;28;20052;-80
2022/12/30 13:10:20;;;;;;;3.88;1.60;;;8.30;99.90;;;;;;5093286;28;20056;-80
2022/12/30 13:12:52;;;;;;;5.65;1.92;;;8.40;99.90;;;;;;5093010;28;20051;-80
2022/12/30 13:15:26;;;;;;;7.05;1.63;;;8.40;99.90;;;;;;5092852;28;20036;-80
2022/12/30 13:17:56;;;;;;;4.95;1.80;;;8.40;99.90;;;;;;5093184;28;20052;-80
2022/12/30 13:20:34;;;;;;;3.97;1.50;;;8.40;99.90;;;;;;5093090;28;20082;-80
2022/12/30 13:23:04;;;;;;;2.97;1.73;;;8.70;99.90;;;;;;5093087;28;20087;-80
2022/12/30 13:25:39;;;;;;;5.70;1.67;;;8.50;99.90;;;;;;5093038;28;20086;-81
2022/12/30 13:28:11;;;;;;;5.20;1.67;;;9.00;99.90;;;;;;5093112;28;20054;-80
2022/12/30 13:30:54;;;;;;;5.82;1.63;;;8.50;99.90;;;;;;5092916;28;20059;-81
2022/12/30 13:33:38;;;;;;;4.97;1.80;;;8.70;99.90;;;;;;5092890;28;20044;-80
2022/12/30 13:36:32;;;;;;;6.75;1.80;;;8.50;99.90;;;;;;5096590;28;20086;-81
2022/12/30 13:39:10;;;;;;;6.38;2.05;;;8.50;99.90;;;;;;5096885;28;20400;-80
2022/12/30 13:41:46;;;;;;;6.75;1.98;;;9.00;99.90;;;;;;5112681;28;20044;-80
2022/12/30 13:44:19;;;;;;;4.82;2.00;;;8.50;99.90;;;;;;5096020;28;20044;-80
2022/12/30 13:46:52;;;;;;;7.45;1.98;;;8.50;99.90;;;;;;5096357;28;20043;-81
2022/12/30 13:49:36;;;;;;;7.28;1.88;;;8.50;99.90;;;;;;5096576;28;20368;-82
2022/12/30 13:52:18;;;;;;;4.30;1.67;;;8.50;99.90;;;;;;5096653;28;20036;-82
2022/12/30 13:54:54;;;;;;;3.97;1.70;;;8.50;99.90;;;;;;5096655;28;20044;-82
2022/12/30 13:57:41;;;;;;;7.65;1.83;;;8.40;99.90;;;;;;5096272;28;20048;-81
2022/12/30 14:00:30;;;;;;;5.13;1.80;;;8.60;99.90;;;;;;5096150;28;20056;-80
2022/12/30 14:03:22;;;;;;;5.75;2.00;;;8.50;99.90;;;;;;5096032;28;20056;-79
2022/12/30 14:05:47;;;;;;;4.85;1.92;;;8.50;99.90;;;;;;5095588;28;20052;-79
2022/12/30 14:08:25;;;;;;;4.13;1.95;;;8.50;99.90;;;;;;5096181;28;20048;-80
2022/12/30 14:11:05;;;;;;;;;;;8.60;99.90;;;;;;5095729;28;20055;-80
2022/12/30 14:13:34;;;;;;;5.18;1.73;;;8.70;99.90;;;;;;5095973;28;19924;-79